Time;durP1;ratioP1;P1;durP2;ratioP2;P2;SDS_P1;SDS_P2;PMS_P1;PMS_P2;Temp;Humidity;BMP_temperature;BMP_pressure;BME280_temperature;BME280_humidity;BME280_pressure;Samples;Min_cycle;Max_cycle;Signal;HPM_P1;HPM_P2
2022/04/18 00:01:05;;;;;;;345.03;96.90;;;;;;;;;;5074791;28;20492;-71
2022/04/18 00:03:33;;;;;;;356.37;102.03;;;;;;;;;;5075876;28;20457;-71
2022/04/18 00:06:00;;;;;;;359.10;99.20;;;;;;;;;;5074704;28;20522;-71
2022/04/18 00:08:31;;;;;;;343.83;94.33;;;;;;;;;;5075218;28;20954;-71
2022/04/18 00:11:00;;;;;;;353.63;101.10;;;;;;;;;;5074360;28;20449;-71
2022/04/18 00:13:28;;;;;;;359.13;100.27;;;;;;;;;;5075271;28;20907;-71
2022/04/18 00:15:56;;;;;;;350.97;99.87;;;;;;;;;;5074379;28;20457;-71
2022/04/18 00:18:24;;;;;;;359.93;96.77;;;;;;;;;;5074641;28;20505;-71
2022/04/18 00:20:52;;;;;;;362.63;94.80;;;;;;;;;;5075445;28;20480;-71
2022/04/18 00:23:20;;;;;;;362.60;99.20;;;;;;;;;;5073694;28;20467;-71
2022/04/18 00:25:49;;;;;;;352.87;101.00;;;;;;;;;;5075224;28;20443;-71
2022/04/18 00:28:22;;;;;;;364.83;95.50;;;;;;;;;;5073298;28;20468;-71
2022/04/18 00:30:51;;;;;;;352.07;94.17;;;;;;;;;;5073616;28;21090;-71
2022/04/18 00:33:21;;;;;;;358.77;91.00;;;;;;;;;;5073871;28;20547;-71
2022/04/18 00:35:52;;;;;;;354.90;96.20;;;;;;;;;;5074261;28;20871;-71
2022/04/18 00:38:19;;;;;;;351.20;90.63;;;;;;;;;;5074352;28;20541;-71
2022/04/18 00:40:51;;;;;;;334.43;95.97;;;;;;;;;;5074448;28;20495;-71
2022/04/18 00:43:19;;;;;;;334.67;91.07;;;;;;;;;;5074173;28;20459;-71
2022/04/18 00:45:47;;;;;;;349.47;89.53;;;;;;;;;;5074729;28;20449;-71
2022/04/18 00:48:14;;;;;;;353.80;92.37;;;;;;;;;;5074865;28;20457;-71
2022/04/18 00:50:42;;;;;;;332.47;92.03;;;;;;;;;;5074166;28;20914;-71
2022/04/18 00:53:12;;;;;;;329.20;93.47;;;;;;;;;;5073762;28;20881;-70
2022/04/18 00:55:40;;;;;;;351.90;89.90;;;;;;;;;;5074492;28;21094;-70
2022/04/18 00:58:22;;;;;;;354.07;93.60;;;;;;;;;;5074714;28;20473;-70
2022/04/18 01:00:55;;;;;;;351.70;98.03;;;;;;;;;;5073779;28;20488;-70
2022/04/18 01:03:23;;;;;;;336.23;88.87;;;;;;;;;;5075085;28;20464;-71
2022/04/18 01:05:52;;;;;;;326.47;87.43;;;;;;;;;;5073874;28;20452;-70
2022/04/18 01:08:19;;;;;;;326.80;85.07;;;;;;;;;;5074429;28;20457;-71
2022/04/18 01:10:48;;;;;;;344.50;90.50;;;;;;;;;;5074438;28;20437;-70
2022/04/18 01:13:18;;;;;;;314.73;84.30;;;;;;;;;;5074313;28;20468;-70
2022/04/18 01:15:45;;;;;;;338.43;85.33;;;;;;;;;;5074624;28;20784;-70
2022/04/18 01:18:13;;;;;;;355.63;87.30;;;;;;;;;;5074283;28;20457;-70
2022/04/18 01:20:44;;;;;;;348.17;85.80;;;;;;;;;;5074379;28;20588;-70
2022/04/18 01:23:12;;;;;;;327.63;81.90;;;;;;;;;;5074058;28;20452;-70
2022/04/18 01:28:59;;;;;;;336.87;85.20;;;;;;;;;;5073799;28;20462;-70
2022/04/18 01:31:27;;;;;;;347.00;86.93;;;;;;;;;;5055614;28;20529;-71
2022/04/18 01:33:55;;;;;;;350.90;87.33;;;;;;;;;;5061648;28;20455;-71
2022/04/18 01:36:25;;;;;;;338.80;85.60;;;;;;;;;;5074429;28;20472;-71
2022/04/18 01:38:54;;;;;;;342.20;82.87;;;;;;;;;;5074440;28;20444;-71
2022/04/18 01:41:23;;;;;;;329.97;84.27;;;;;;;;;;5073194;28;20491;-71
2022/04/18 01:43:51;;;;;;;350.77;88.87;;;;;;;;;;5076894;28;20461;-71
2022/04/18 01:46:19;;;;;;;341.77;87.90;;;;;;;;;;5078148;28;20849;-71
2022/04/18 01:48:51;;;;;;;351.30;83.70;;;;;;;;;;5081571;28;20790;-71
2022/04/18 01:51:19;;;;;;;342.90;83.73;;;;;;;;;;5097920;28;20451;-71
2022/04/18 01:53:51;;;;;;;348.93;85.43;;;;;;;;;;5093632;28;20448;-71
2022/04/18 01:56:18;;;;;;;349.77;83.90;;;;;;;;;;5080648;28;20559;-72
2022/04/18 01:58:46;;;;;;;343.87;84.63;;;;;;;;;;5077903;28;20747;-72
2022/04/18 02:01:17;;;;;;;350.40;84.80;;;;;;;;;;5077135;28;20480;-72
2022/04/18 02:03:45;;;;;;;342.80;83.20;;;;;;;;;;5076595;28;20472;-71
2022/04/18 02:06:13;;;;;;;339.07;84.80;;;;;;;;;;5077439;28;20460;-71
2022/04/18 02:08:41;;;;;;;349.47;85.70;;;;;;;;;;5077002;28;20474;-71
2022/04/18 02:11:10;;;;;;;337.97;81.27;;;;;;;;;;5076979;28;20464;-71
2022/04/18 02:13:40;;;;;;;335.73;81.80;;;;;;;;;;5077099;28;20527;-71
2022/04/18 02:16:08;;;;;;;344.07;82.87;;;;;;;;;;5077508;28;20460;-71
2022/04/18 02:18:38;;;;;;;349.10;86.83;;;;;;;;;;5076949;28;20429;-71
2022/04/18 02:21:08;;;;;;;340.20;82.27;;;;;;;;;;5077313;28;20939;-71
2022/04/18 02:23:36;;;;;;;343.57;87.17;;;;;;;;;;5076657;28;20503;-71
2022/04/18 02:26:04;;;;;;;350.30;83.43;;;;;;;;;;5076871;28;20459;-71
2022/04/18 02:28:33;;;;;;;353.60;89.20;;;;;;;;;;5077309;28;20453;-71
2022/04/18 02:31:03;;;;;;;345.27;86.93;;;;;;;;;;5076187;28;20459;-71
2022/04/18 02:33:32;;;;;;;335.37;86.07;;;;;;;;;;5076657;28;20988;-70
2022/04/18 02:36:02;;;;;;;339.47;86.90;;;;;;;;;;5076721;28;20472;-71
2022/04/18 02:38:31;;;;;;;339.00;84.27;;;;;;;;;;5076626;28;20479;-70
2022/04/18 02:40:58;;;;;;;340.33;84.53;;;;;;;;;;5076350;28;20576;-71
2022/04/18 02:43:26;;;;;;;347.60;85.77;;;;;;;;;;5077034;28;20444;-71
2022/04/18 02:46:04;;;;;;;346.27;83.03;;;;;;;;;;5076863;28;20510;-71
2022/04/18 02:48:32;;;;;;;344.60;84.50;;;;;;;;;;5076041;28;20467;-71
2022/04/18 02:51:04;;;;;;;346.37;82.60;;;;;;;;;;5076661;28;20849;-71
2022/04/18 02:53:34;;;;;;;341.33;84.40;;;;;;;;;;5076016;28;20464;-72
2022/04/18 02:56:08;;;;;;;345.13;85.83;;;;;;;;;;5076534;28;20452;-70
2022/04/18 02:58:36;;;;;;;347.80;85.10;;;;;;;;;;5077119;28;20448;-70
2022/04/18 03:01:06;;;;;;;349.33;87.60;;;;;;;;;;5076919;28;20585;-71
2022/04/18 03:03:35;;;;;;;337.97;83.33;;;;;;;;;;5076315;28;20464;-70
2022/04/18 03:06:06;;;;;;;341.63;84.53;;;;;;;;;;5075484;28;20437;-70
2022/04/18 03:08:34;;;;;;;344.90;83.57;;;;;;;;;;5076115;28;20461;-70
2022/04/18 03:11:05;;;;;;;340.70;87.13;;;;;;;;;;5075684;28;20464;-70
2022/04/18 03:13:34;;;;;;;344.63;87.00;;;;;;;;;;5076141;28;20460;-71
2022/04/18 03:16:01;;;;;;;343.63;85.70;;;;;;;;;;5075982;28;20453;-70
2022/04/18 03:18:31;;;;;;;330.00;76.97;;;;;;;;;;5076119;28;20452;-71
2022/04/18 03:20:59;;;;;;;334.93;81.40;;;;;;;;;;5076074;28;20557;-71
2022/04/18 03:23:27;;;;;;;340.57;80.97;;;;;;;;;;5075519;28;20555;-71
2022/04/18 03:25:56;;;;;;;324.43;83.50;;;;;;;;;;5075732;28;20478;-71
2022/04/18 03:28:27;;;;;;;344.90;89.30;;;;;;;;;;5074783;28;20461;-71
2022/04/18 03:30:58;;;;;;;336.50;78.67;;;;;;;;;;5076234;28;20463;-71
2022/04/18 03:33:31;;;;;;;331.77;79.60;;;;;;;;;;5075462;28;20445;-72
2022/04/18 03:41:35;;;;;;;332.17;82.57;;;;;;;;;;5075912;28;20523;-72
2022/04/18 03:44:05;;;;;;;341.20;89.30;;;;;;;;;;5076138;28;20444;-72
2022/04/18 03:46:36;;;;;;;342.87;84.63;;;;;;;;;;5075275;28;20441;-72
2022/04/18 03:49:05;;;;;;;328.77;86.47;;;;;;;;;;5075277;28;20849;-71
2022/04/18 03:51:34;;;;;;;344.00;84.67;;;;;;;;;;5074945;28;20430;-72
2022/04/18 03:54:01;;;;;;;336.37;82.37;;;;;;;;;;5076391;28;20540;-71
2022/04/18 03:56:29;;;;;;;342.03;79.80;;;;;;;;;;5080070;28;20449;-71
2022/04/18 03:58:56;;;;;;;342.80;84.43;;;;;;;;;;5075258;28;21230;-71
2022/04/18 04:01:24;;;;;;;342.53;83.97;;;;;;;;;;5080110;28;20535;-72
2022/04/18 04:03:52;;;;;;;338.90;82.33;;;;;;;;;;5075335;28;20464;-70
2022/04/18 04:06:37;;;;;;;342.20;86.47;;;;;;;;;;5075352;28;20555;-71
2022/04/18 04:09:09;;;;;;;343.47;82.77;;;;;;;;;;5074247;28;20498;-71
2022/04/18 04:11:37;;;;;;;332.10;81.37;;;;;;;;;;5075459;28;20514;-71
2022/04/18 04:14:04;;;;;;;344.30;82.67;;;;;;;;;;5075003;28;20448;-70
2022/04/18 04:16:32;;;;;;;352.80;86.20;;;;;;;;;;5075116;28;20725;-71
2022/04/18 04:19:00;;;;;;;334.63;82.03;;;;;;;;;;5074775;28;20451;-70
2022/04/18 04:21:29;;;;;;;345.37;84.80;;;;;;;;;;5075118;28;20484;-71
2022/04/18 04:24:00;;;;;;;332.77;79.13;;;;;;;;;;5075550;28;20868;-70
2022/04/18 04:26:28;;;;;;;343.10;83.50;;;;;;;;;;5074533;28;20839;-70
2022/04/18 04:28:55;;;;;;;236.60;75.67;;;;;;;;;;5075072;28;20514;-70
2022/04/18 04:31:23;;;;;;;338.47;86.00;;;;;;;;;;5074082;28;20467;-72
2022/04/18 04:33:54;;;;;;;340.60;83.23;;;;;;;;;;5074903;28;20453;-71
2022/04/18 04:36:22;;;;;;;338.50;81.33;;;;;;;;;;5074642;28;20456;-71
2022/04/18 04:38:50;;;;;;;343.60;80.43;;;;;;;;;;5074692;28;20448;-70
2022/04/18 04:41:18;;;;;;;336.67;79.47;;;;;;;;;;5080635;28;20911;-70
2022/04/18 04:43:46;;;;;;;341.07;81.43;;;;;;;;;;5093933;28;20458;-70
2022/04/18 04:46:14;;;;;;;343.20;84.30;;;;;;;;;;5094588;28;20467;-70
2022/04/18 04:48:41;;;;;;;332.63;78.77;;;;;;;;;;5094037;28;20456;-70
2022/04/18 04:51:10;;;;;;;341.07;81.20;;;;;;;;;;5095250;28;20459;-71
2022/04/18 04:53:37;;;;;;;341.23;83.40;;;;;;;;;;5093197;28;20444;-70
2022/04/18 04:56:07;;;;;;;337.50;78.83;;;;;;;;;;5074355;28;20503;-71
2022/04/18 04:58:35;;;;;;;338.03;83.70;;;;;;;;;;5074529;28;20487;-71
2022/04/18 05:01:02;;;;;;;336.20;77.40;;;;;;;;;;5075659;28;20765;-71
2022/04/18 05:03:30;;;;;;;338.33;78.87;;;;;;;;;;5074883;28;20879;-70
2022/04/18 05:05:58;;;;;;;328.17;78.30;;;;;;;;;;5074126;28;20463;-70
2022/04/18 05:08:25;;;;;;;331.80;79.90;;;;;;;;;;5074955;28;20448;-71
2022/04/18 05:10:55;;;;;;;340.90;81.27;;;;;;;;;;5086512;28;20501;-71
2022/04/18 05:13:24;;;;;;;340.97;79.17;;;;;;;;;;5074333;28;20906;-70
2022/04/18 05:15:52;;;;;;;357.20;91.57;;;;;;;;;;5073365;28;20452;-71
2022/04/18 05:18:19;;;;;;;349.60;84.70;;;;;;;;;;5076042;28;20476;-70
2022/04/18 05:20:47;;;;;;;362.27;90.43;;;;;;;;;;5082736;28;20443;-71
2022/04/18 05:23:17;;;;;;;356.40;90.93;;;;;;;;;;5098215;28;20479;-71
2022/04/18 05:25:45;;;;;;;351.93;84.67;;;;;;;;;;5098665;28;20435;-71
2022/04/18 05:28:16;;;;;;;348.57;85.17;;;;;;;;;;5097556;28;20859;-71
2022/04/18 05:30:45;;;;;;;354.10;84.27;;;;;;;;;;5098557;28;20740;-71
2022/04/18 05:33:12;;;;;;;362.50;93.73;;;;;;;;;;5097753;28;20548;-71
2022/04/18 05:35:40;;;;;;;350.87;94.03;;;;;;;;;;5098501;28;20817;-71
2022/04/18 05:38:11;;;;;;;347.40;89.23;;;;;;;;;;5097993;28;20444;-71
2022/04/18 05:40:38;;;;;;;352.17;89.20;;;;;;;;;;5097964;28;20459;-71
2022/04/18 05:43:06;;;;;;;356.67;98.07;;;;;;;;;;5097689;28;20494;-71
2022/04/18 05:45:34;;;;;;;349.07;90.23;;;;;;;;;;5089321;28;20525;-71
2022/04/18 05:48:03;;;;;;;357.80;88.87;;;;;;;;;;5098089;28;20447;-71
2022/04/18 05:50:34;;;;;;;348.37;86.30;;;;;;;;;;5096852;28;20559;-72
2022/04/18 05:53:04;;;;;;;357.20;88.17;;;;;;;;;;5097379;28;20457;-72
2022/04/18 05:55:35;;;;;;;354.50;92.30;;;;;;;;;;5096717;28;20452;-71
2022/04/18 05:58:04;;;;;;;353.17;87.53;;;;;;;;;;5097719;28;20482;-70
2022/04/18 06:00:32;;;;;;;351.77;88.90;;;;;;;;;;5097661;28;20542;-71
2022/04/18 06:03:03;;;;;;;360.20;95.60;;;;;;;;;;5092201;28;20485;-71
2022/04/18 06:05:34;;;;;;;350.10;89.67;;;;;;;;;;5079231;28;20448;-71
2022/04/18 06:08:03;;;;;;;351.50;88.50;;;;;;;;;;5076101;28;20452;-71
2022/04/18 06:10:31;;;;;;;355.57;94.90;;;;;;;;;;5090142;28;20539;-72
2022/04/18 06:12:59;;;;;;;349.90;87.83;;;;;;;;;;5087837;28;20464;-71
2022/04/18 06:15:27;;;;;;;353.07;90.47;;;;;;;;;;5076817;28;20471;-72
2022/04/18 06:17:55;;;;;;;351.73;89.37;;;;;;;;;;5076861;28;20479;-71
2022/04/18 06:20:22;;;;;;;348.50;87.57;;;;;;;;;;5078152;28;20556;-72
2022/04/18 06:22:52;;;;;;;362.83;86.77;;;;;;;;;;5076801;28;20480;-71
2022/04/18 06:25:19;;;;;;;357.40;90.17;;;;;;;;;;5076248;28;20457;-71
2022/04/18 06:27:47;;;;;;;358.53;91.10;;;;;;;;;;5076002;28;20451;-72
2022/04/18 06:30:14;;;;;;;353.63;92.10;;;;;;;;;;5075281;28;20452;-70
2022/04/18 06:32:42;;;;;;;363.77;92.17;;;;;;;;;;5093802;28;20497;-71
2022/04/18 06:35:11;;;;;;;359.17;91.17;;;;;;;;;;5095936;28;20469;-71
2022/04/18 06:37:38;;;;;;;358.97;92.63;;;;;;;;;;5096660;28;20519;-71
2022/04/18 06:40:08;;;;;;;360.30;96.03;;;;;;;;;;5096324;28;20452;-71
2022/04/18 06:42:37;;;;;;;362.57;92.73;;;;;;;;;;5093758;28;20471;-72
2022/04/18 06:45:06;;;;;;;367.57;97.73;;;;;;;;;;5076339;28;20452;-71
2022/04/18 06:47:33;;;;;;;357.40;92.17;;;;;;;;;;5075859;28;20444;-72
2022/04/18 06:50:08;;;;;;;363.57;94.33;;;;;;;;;;5076583;28;20457;-71
2022/04/18 06:52:39;;;;;;;360.23;93.57;;;;;;;;;;5076066;28;20527;-71
2022/04/18 06:55:09;;;;;;;370.97;100.63;;;;;;;;;;5076068;28;20457;-71
2022/04/18 06:57:37;;;;;;;368.50;97.70;;;;;;;;;;5074318;28;21046;-71
2022/04/18 07:00:05;;;;;;;363.83;96.93;;;;;;;;;;5097214;28;20455;-71
2022/04/18 07:02:33;;;;;;;371.77;100.37;;;;;;;;;;5095950;28;20556;-71
2022/04/18 07:05:01;;;;;;;371.57;100.60;;;;;;;;;;5096458;28;20505;-71
2022/04/18 07:07:29;;;;;;;376.97;112.17;;;;;;;;;;5096303;28;20448;-71
2022/04/18 07:09:57;;;;;;;378.50;118.47;;;;;;;;;;5092913;28;20451;-71
2022/04/18 07:12:26;;;;;;;369.47;100.60;;;;;;;;;;5075652;28;20856;-71
2022/04/18 07:14:55;;;;;;;373.07;111.50;;;;;;;;;;5075532;28;20456;-71
2022/04/18 07:17:23;;;;;;;365.97;99.53;;;;;;;;;;5075354;28;20651;-72
2022/04/18 07:19:50;;;;;;;375.40;108.77;;;;;;;;;;5074863;28;21056;-71
2022/04/18 07:22:18;;;;;;;370.77;102.43;;;;;;;;;;5075173;28;20745;-72
2022/04/18 07:24:46;;;;;;;375.80;112.00;;;;;;;;;;5075575;28;20534;-72
2022/04/18 07:27:15;;;;;;;376.83;113.73;;;;;;;;;;5074937;28;20468;-71
2022/04/18 07:29:51;;;;;;;377.37;118.07;;;;;;;;;;5075709;28;20577;-71
2022/04/18 07:32:19;;;;;;;376.90;110.10;;;;;;;;;;5074822;28;20996;-71
2022/04/18 07:34:48;;;;;;;379.37;117.20;;;;;;;;;;5075121;28;20730;-71
2022/04/18 07:37:15;;;;;;;375.50;114.03;;;;;;;;;;5075082;28;20445;-71
2022/04/18 07:39:43;;;;;;;387.27;117.63;;;;;;;;;;5081214;28;20464;-71
2022/04/18 07:42:11;;;;;;;379.27;114.23;;;;;;;;;;5074689;28;20575;-71
2022/04/18 07:44:39;;;;;;;372.50;108.87;;;;;;;;;;5075048;28;20495;-71
2022/04/18 07:47:08;;;;;;;377.17;111.87;;;;;;;;;;5074263;28;20551;-70
2022/04/18 07:49:39;;;;;;;385.83;121.50;;;;;;;;;;5074324;28;20511;-70
2022/04/18 07:52:08;;;;;;;384.60;118.60;;;;;;;;;;5080522;28;20451;-70
2022/04/18 07:54:36;;;;;;;381.57;120.53;;;;;;;;;;5084387;28;20465;-71
2022/04/18 07:57:04;;;;;;;388.83;119.80;;;;;;;;;;5073995;28;20744;-71
2022/04/18 07:59:34;;;;;;;380.97;113.53;;;;;;;;;;5073991;28;20817;-72
2022/04/18 08:02:08;;;;;;;387.17;125.53;;;;;;;;;;5072799;28;20470;-71
2022/04/18 08:04:39;;;;;;;383.70;113.67;;;;;;;;;;5073182;28;20886;-72
2022/04/18 08:07:08;;;;;;;403.40;132.40;;;;;;;;;;5073851;28;20813;-71
2022/04/18 08:09:36;;;;;;;388.07;131.80;;;;;;;;;;5072966;28;20437;-71
2022/04/18 08:12:04;;;;;;;393.97;131.53;;;;;;;;;;5072254;28;20555;-71
2022/04/18 08:14:35;;;;;;;395.20;133.23;;;;;;;;;;5072281;28;20661;-72
2022/04/18 08:17:03;;;;;;;399.50;140.10;;;;;;;;;;5072300;28;20454;-71
2022/04/18 08:19:33;;;;;;;396.87;134.37;;;;;;;;;;5061172;28;20453;-71
2022/04/18 08:22:05;;;;;;;381.93;129.70;;;;;;;;;;5062030;28;20461;-72
2022/04/18 08:24:34;;;;;;;387.13;142.03;;;;;;;;;;5053146;28;20477;-71
2022/04/18 08:27:03;;;;;;;397.43;139.50;;;;;;;;;;5051483;28;20819;-71
2022/04/18 08:29:31;;;;;;;387.47;130.83;;;;;;;;;;5052039;28;20450;-71
2022/04/18 08:31:58;;;;;;;396.10;137.23;;;;;;;;;;5064427;28;20456;-70
2022/04/18 08:34:26;;;;;;;397.60;140.07;;;;;;;;;;5073600;28;20775;-70
2022/04/18 08:36:54;;;;;;;399.40;151.00;;;;;;;;;;5088916;28;20456;-71
2022/04/18 08:39:26;;;;;;;390.30;139.10;;;;;;;;;;5073926;28;20542;-72
2022/04/18 08:41:58;;;;;;;406.97;154.33;;;;;;;;;;5079978;28;20483;-72
2022/04/18 08:44:27;;;;;;;400.30;144.93;;;;;;;;;;5073856;28;20740;-72
2022/04/18 08:46:58;;;;;;;398.80;148.40;;;;;;;;;;5073207;28;20452;-72
2022/04/18 08:55:05;;;;;;;407.00;161.33;;;;;;;;;;5077330;28;20570;-72
2022/04/18 08:57:33;;;;;;;407.57;155.73;;;;;;;;;;5078854;28;20459;-72
2022/04/18 09:00:03;;;;;;;396.80;147.87;;;;;;;;;;5078275;28;20857;-72
2022/04/18 09:02:51;;;;;;;404.93;157.63;;;;;;;;;;5077916;28;20436;-71
2022/04/18 09:05:23;;;;;;;402.33;157.03;;;;;;;;;;5078034;28;20531;-71
2022/04/18 09:07:59;;;;;;;399.20;150.20;;;;;;;;;;5077349;28;20719;-71
2022/04/18 09:10:31;;;;;;;400.60;152.97;;;;;;;;;;5076924;28;20450;-71
2022/04/18 09:13:04;;;;;;;401.00;158.20;;;;;;;;;;5077587;28;20449;-71
2022/04/18 09:15:37;;;;;;;408.83;158.80;;;;;;;;;;5082302;28;20495;-71
2022/04/18 09:18:12;;;;;;;398.30;146.60;;;;;;;;;;5076509;28;20453;-71
2022/04/18 09:20:48;;;;;;;396.67;144.90;;;;;;;;;;5076002;28;20513;-71
2022/04/18 09:23:23;;;;;;;404.20;160.30;;;;;;;;;;5076289;28;20484;-71
2022/04/18 09:25:59;;;;;;;410.73;169.23;;;;;;;;;;5075779;28;20795;-71
2022/04/18 09:28:33;;;;;;;403.67;147.47;;;;;;;;;;5073573;28;20490;-71
2022/04/18 09:31:03;;;;;;;408.37;173.53;;;;;;;;;;5079249;28;20467;-72
2022/04/18 09:33:32;;;;;;;404.30;163.40;;;;;;;;;;5078953;28;20461;-71
2022/04/18 09:36:07;;;;;;;411.20;181.37;;;;;;;;;;5074209;28;20495;-71
2022/04/18 09:38:41;;;;;;;403.47;160.90;;;;;;;;;;5073678;28;20444;-71
2022/04/18 09:41:14;;;;;;;405.50;169.93;;;;;;;;;;5067940;28;20915;-71
2022/04/18 09:43:44;;;;;;;407.80;177.00;;;;;;;;;;5072622;28;20820;-71
2022/04/18 09:46:14;;;;;;;397.57;152.53;;;;;;;;;;5082457;28;20449;-70
2022/04/18 09:48:50;;;;;;;407.30;171.67;;;;;;;;;;5076226;28;20456;-70
2022/04/18 09:51:24;;;;;;;407.80;169.83;;;;;;;;;;5075854;28;20881;-71
2022/04/18 09:53:52;;;;;;;411.23;182.57;;;;;;;;;;5076209;28;20556;-70
2022/04/18 09:56:24;;;;;;;403.73;162.77;;;;;;;;;;5075738;28;20490;-71
2022/04/18 09:58:53;;;;;;;396.83;148.70;;;;;;;;;;5059578;28;20539;-71
2022/04/18 10:01:21;;;;;;;405.13;172.53;;;;;;;;;;5056253;28;20473;-71
2022/04/18 10:03:55;;;;;;;399.03;155.30;;;;;;;;;;5092232;28;20514;-71
2022/04/18 10:06:26;;;;;;;405.93;172.30;;;;;;;;;;5095028;28;20513;-71
2022/04/18 10:08:57;;;;;;;407.17;167.90;;;;;;;;;;5095835;28;20458;-71
2022/04/18 10:11:32;;;;;;;408.20;178.70;;;;;;;;;;5094857;28;20471;-71
2022/04/18 10:14:01;;;;;;;409.27;176.47;;;;;;;;;;5083810;28;20880;-71
2022/04/18 10:16:31;;;;;;;409.93;186.27;;;;;;;;;;5075532;28;20452;-71
2022/04/18 10:19:02;;;;;;;407.30;174.37;;;;;;;;;;5092320;28;20538;-71
2022/04/18 10:21:31;;;;;;;406.77;177.37;;;;;;;;;;5095863;28;20521;-71
2022/04/18 10:24:04;;;;;;;410.70;192.07;;;;;;;;;;5087528;28;20863;-71
2022/04/18 10:27:08;;;;;;;415.40;194.13;;;;;;;;;;5078452;28;20464;-72
2022/04/18 10:29:54;;;;;;;403.80;174.83;;;;;;;;;;5075305;28;20444;-72
2022/04/18 10:32:26;;;;;;;409.37;194.40;;;;;;;;;;5075857;28;20754;-72
2022/04/18 10:35:04;;;;;;;409.13;193.90;;;;;;;;;;5076952;28;20440;-72
2022/04/18 10:37:37;;;;;;;411.00;197.17;;;;;;;;;;5095452;28;20451;-72
2022/04/18 10:40:06;;;;;;;415.57;205.03;;;;;;;;;;5095336;28;20455;-72
2022/04/18 10:42:41;;;;;;;408.03;186.80;;;;;;;;;;5086727;28;20439;-72
2022/04/18 10:45:34;;;;;;;411.60;186.80;;;;;;;;;;5082842;28;20576;-72
2022/04/18 10:48:19;;;;;;;407.17;181.33;;;;;;;;;;5073259;28;20457;-72
2022/04/18 10:50:50;;;;;;;407.73;184.77;;;;;;;;;;5074733;28;20445;-70
2022/04/18 10:53:31;;;;;;;405.40;177.03;;;;;;;;;;5075156;28;20875;-71
2022/04/18 10:56:15;;;;;;;404.17;176.57;;;;;;;;;;5074497;28;20476;-72
2022/04/18 10:58:46;;;;;;;413.00;190.70;;;;;;;;;;5074690;28;20543;-72
2022/04/18 11:01:17;;;;;;;417.67;203.87;;;;;;;;;;5074845;28;20516;-72
2022/04/18 11:04:07;;;;;;;419.90;211.73;;;;;;;;;;5074817;28;20499;-72
2022/04/18 11:07:07;;;;;;;406.80;189.17;;;;;;;;;;5074326;28;20954;-72
2022/04/18 11:09:46;;;;;;;416.30;225.80;;;;;;;;;;5074603;28;20440;-71
2022/04/18 11:12:18;;;;;;;419.60;213.37;;;;;;;;;;5075262;28;20479;-72
2022/04/18 11:14:48;;;;;;;403.10;178.10;;;;;;;;;;5060875;28;20462;-71
2022/04/18 11:17:31;;;;;;;409.87;202.43;;;;;;;;;;5053822;28;20449;-71
2022/04/18 11:23:12;;;;;;;398.47;173.53;;;;;;;;;;5070710;28;20436;-71
2022/04/18 11:25:54;;;;;;;416.87;212.13;;;;;;;;;;5074988;28;20857;-72
2022/04/18 11:28:28;;;;;;;402.20;173.10;;;;;;;;;;5054253;28;20458;-71
2022/04/18 11:30:58;;;;;;;397.70;165.00;;;;;;;;;;5074261;28;20542;-70
2022/04/18 11:33:26;;;;;;;414.13;198.50;;;;;;;;;;5073196;28;20459;-71
2022/04/18 11:36:05;;;;;;;401.53;176.50;;;;;;;;;;5054189;28;20487;-71
2022/04/18 11:38:36;;;;;;;407.47;188.67;;;;;;;;;;5054692;28;20461;-74
2022/04/18 11:41:16;;;;;;;414.63;217.67;;;;;;;;;;5066447;28;20444;-73
2022/04/18 11:43:44;;;;;;;409.77;204.97;;;;;;;;;;5074520;28;20479;-72
2022/04/18 11:46:16;;;;;;;409.30;199.10;;;;;;;;;;5074372;28;20481;-72
2022/04/18 11:48:56;;;;;;;404.83;188.60;;;;;;;;;;5074624;28;20507;-73
2022/04/18 11:51:42;;;;;;;405.63;192.03;;;;;;;;;;5080581;28;20451;-73
2022/04/18 11:54:10;;;;;;;399.97;174.27;;;;;;;;;;5081996;28;20973;-72
2022/04/18 11:56:40;;;;;;;415.73;205.37;;;;;;;;;;5072223;28;20444;-73
2022/04/18 11:59:08;;;;;;;413.10;214.80;;;;;;;;;;5071625;28;20539;-72
2022/04/18 12:07:11;;;;;;;404.83;186.37;;;;;;;;;;5073060;28;20424;-71
2022/04/18 12:09:40;;;;;;;416.80;223.37;;;;;;;;;;5073304;28;20472;-72
2022/04/18 12:12:26;;;;;;;410.00;192.80;;;;;;;;;;5071629;28;20451;-71
2022/04/18 12:15:06;;;;;;;411.37;205.53;;;;;;;;;;5072410;28;20448;-71
2022/04/18 12:17:34;;;;;;;412.37;198.30;;;;;;;;;;5073115;28;20472;-73
2022/04/18 12:20:17;;;;;;;419.30;213.63;;;;;;;;;;5073397;28;20457;-72
2022/04/18 12:22:45;;;;;;;417.07;207.00;;;;;;;;;;5079298;28;20545;-72
2022/04/18 12:25:20;;;;;;;413.90;213.83;;;;;;;;;;5071208;28;20484;-72
2022/04/18 12:27:49;;;;;;;410.97;211.93;;;;;;;;;;5075071;28;20474;-72
2022/04/18 12:30:18;;;;;;;401.87;178.93;;;;;;;;;;5073491;28;20829;-73
2022/04/18 12:32:50;;;;;;;419.57;218.13;;;;;;;;;;5076715;28;20439;-71
2022/04/18 12:35:36;;;;;;;405.77;192.13;;;;;;;;;;5088118;28;20460;-72
2022/04/18 12:38:04;;;;;;;411.43;201.27;;;;;;;;;;5072929;28;20472;-71
2022/04/18 12:40:36;;;;;;;415.50;217.17;;;;;;;;;;5072275;28;20994;-72
2022/04/18 12:43:09;;;;;;;409.33;193.93;;;;;;;;;;5073328;28;20459;-71
2022/04/18 12:45:50;;;;;;;405.97;194.90;;;;;;;;;;5065336;28;20507;-71
2022/04/18 12:48:25;;;;;;;414.40;218.37;;;;;;;;;;5063934;28;20465;-72
2022/04/18 12:50:56;;;;;;;404.20;189.90;;;;;;;;;;5063116;28;20459;-71
2022/04/18 12:53:44;;;;;;;412.70;217.17;;;;;;;;;;5051833;28;20587;-72
2022/04/18 12:56:20;;;;;;;421.07;244.17;;;;;;;;;;5052509;28;20541;-72
2022/04/18 12:59:02;;;;;;;415.53;223.33;;;;;;;;;;5080343;28;20461;-73
2022/04/18 13:01:34;;;;;;;418.40;234.07;;;;;;;;;;5073918;28;20491;-72
2022/04/18 13:04:03;;;;;;;418.47;230.63;;;;;;;;;;5082536;28;21085;-72
2022/04/18 13:06:31;;;;;;;423.33;241.77;;;;;;;;;;5076889;28;20474;-72
2022/04/18 13:09:02;;;;;;;416.73;208.97;;;;;;;;;;5072140;28;20487;-72
2022/04/18 13:11:42;;;;;;;415.67;227.10;;;;;;;;;;5067881;28;20927;-72
2022/04/18 13:14:16;;;;;;;404.57;197.80;;;;;;;;;;5052532;28;20518;-72
2022/04/18 13:17:00;;;;;;;416.27;211.80;;;;;;;;;;5053003;28;20895;-72
2022/04/18 13:19:28;;;;;;;407.23;204.50;;;;;;;;;;5052798;28;20465;-72
2022/04/18 13:21:57;;;;;;;414.87;212.67;;;;;;;;;;5052222;28;20469;-72
2022/04/18 13:24:25;;;;;;;415.23;217.53;;;;;;;;;;5076332;28;20479;-72
2022/04/18 13:26:55;;;;;;;418.07;224.47;;;;;;;;;;5077399;28;20444;-71
2022/04/18 13:29:24;;;;;;;406.40;190.57;;;;;;;;;;5079771;28;20751;-71
2022/04/18 13:31:56;;;;;;;409.90;200.00;;;;;;;;;;5080495;28;20926;-72
2022/04/18 13:34:24;;;;;;;410.13;200.97;;;;;;;;;;5071522;28;20445;-73
2022/04/18 13:36:52;;;;;;;414.53;204.63;;;;;;;;;;5075713;28;20768;-73
2022/04/18 13:39:22;;;;;;;470.33;270.53;;;;;;;;;;5094690;28;20943;-72
2022/04/18 13:41:52;;;;;;;416.10;226.67;;;;;;;;;;5097414;28;20455;-72
2022/04/18 13:44:20;;;;;;;419.70;224.27;;;;;;;;;;5086671;28;20489;-72
2022/04/18 13:46:49;;;;;;;423.70;221.73;;;;;;;;;;5076953;28;20456;-72
2022/04/18 13:49:16;;;;;;;417.77;216.90;;;;;;;;;;5078779;28;20517;-72
2022/04/18 13:51:47;;;;;;;412.10;215.67;;;;;;;;;;5076975;28;20567;-72
2022/04/18 13:54:15;;;;;;;418.80;230.73;;;;;;;;;;5094964;28;20459;-72
2022/04/18 13:56:43;;;;;;;415.13;209.53;;;;;;;;;;5095984;28;20899;-71
2022/04/18 13:59:11;;;;;;;420.77;232.03;;;;;;;;;;5096485;28;20447;-71
2022/04/18 14:01:39;;;;;;;411.97;208.37;;;;;;;;;;5095435;28;20882;-72
2022/04/18 14:04:08;;;;;;;410.80;204.90;;;;;;;;;;5095118;28;20476;-71
2022/04/18 14:06:39;;;;;;;415.13;220.63;;;;;;;;;;5096036;28;20483;-72
2022/04/18 14:09:17;;;;;;;415.93;229.87;;;;;;;;;;5073173;28;20792;-74
2022/04/18 14:11:52;;;;;;;422.10;248.90;;;;;;;;;;5076086;28;20541;-72
2022/04/18 14:22:39;;;;;;;422.83;235.00;;;;;;;;;;5075887;28;20424;-72
2022/04/18 14:25:08;;;;;;;420.30;224.63;;;;;;;;;;5074985;28;20476;-72
2022/04/18 14:27:36;;;;;;;418.10;229.03;;;;;;;;;;5075197;28;20930;-72
2022/04/18 14:30:08;;;;;;;409.80;204.40;;;;;;;;;;5090450;28;20860;-72
2022/04/18 14:32:39;;;;;;;421.30;235.60;;;;;;;;;;5095165;28;20448;-72
2022/04/18 14:35:11;;;;;;;407.57;198.77;;;;;;;;;;5084933;28;20510;-72
2022/04/18 14:37:44;;;;;;;430.77;263.67;;;;;;;;;;5074922;28;20555;-72
2022/04/18 14:40:12;;;;;;;399.40;272.90;;;;;;;;;;5074093;28;20460;-71
2022/04/18 14:42:40;;;;;;;420.67;235.17;;;;;;;;;;5092661;28;20812;-72
2022/04/18 14:45:10;;;;;;;424.57;240.57;;;;;;;;;;5094890;28;20489;-72
2022/04/18 14:47:45;;;;;;;414.97;220.23;;;;;;;;;;5094694;28;21035;-73
2022/04/18 14:50:16;;;;;;;417.13;224.63;;;;;;;;;;5093932;28;20435;-72